createdAt,value
2023-02-21T00:00:49.811Z,102169.28
2023-02-21T00:03:38.897Z,102168.38
2023-02-21T00:06:30.912Z,102162.78
2023-02-21T00:09:19.811Z,102154.38
2023-02-21T00:12:09.896Z,102141.72
2023-02-21T00:14:59.369Z,102141.31
2023-02-21T00:17:48.552Z,102139.16
2023-02-21T00:20:37.768Z,102144.06
2023-02-21T00:23:27.096Z,102141.25
2023-02-21T00:26:16.493Z,102131.78
2023-02-21T00:29:05.670Z,102128.75
2023-02-21T00:31:55.061Z,102128.19
2023-02-21T00:34:43.949Z,102122.81
2023-02-21T00:37:33.316Z,102118.78
2023-02-21T00:40:22.663Z,102121.28
2023-02-21T00:43:12.005Z,102109.34
2023-02-21T00:46:01.240Z,102110.72
2023-02-21T00:48:51.158Z,102104.50
2023-02-21T00:51:40.699Z,102095.41
2023-02-21T00:54:30.034Z,102097.97
2023-02-21T00:57:19.432Z,102097.03
2023-02-21T01:00:08.339Z,102091.53
2023-02-21T01:02:57.358Z,102085.03
2023-02-21T01:05:46.393Z,102090.53
2023-02-21T01:08:35.875Z,102065.78
2023-02-21T01:11:25.078Z,102084.53
2023-02-21T01:14:14.995Z,102075.53
2023-02-21T01:17:12.894Z,102055.16
2023-02-21T01:20:03.004Z,102065.16
2023-02-21T01:22:52.383Z,102062.38
2023-02-21T01:25:48.559Z,102049.22
2023-02-21T01:28:37.932Z,102038.75
2023-02-21T01:31:27.286Z,102043.59
2023-02-21T01:34:16.315Z,102036.72
2023-02-21T01:37:05.268Z,102036.19
2023-02-21T01:39:54.905Z,102035.50
2023-02-21T01:42:47.031Z,102021.50
2023-02-21T01:45:42.526Z,102019.47
2023-02-21T01:48:39.118Z,102027.00
2023-02-21T01:51:30.437Z,102024.84
2023-02-21T01:54:20.195Z,102020.06
2023-02-21T01:57:09.978Z,102009.44
2023-02-21T01:59:59.307Z,102007.56
2023-02-21T02:02:57.320Z,102009.22
2023-02-21T02:05:48.125Z,102011.19
2023-02-21T02:08:38.748Z,102002.22
2023-02-21T02:11:53.003Z,102001.56
2023-02-21T02:14:37.140Z,101990.97
2023-02-21T02:17:21.973Z,101988.16
2023-02-21T02:20:26.860Z,101992.03
2023-02-21T02:23:16.277Z,101991.09
2023-02-21T02:26:05.421Z,101987.09
2023-02-21T02:28:39.496Z,101974.84
2023-02-21T02:31:37.578Z,101966.84
2023-02-21T02:34:36.878Z,101964.91
2023-02-21T02:37:33.608Z,101957.97
2023-02-21T02:40:25.942Z,101965.72
2023-02-21T02:43:36.165Z,101950.06
2023-02-21T02:46:22.470Z,101955.88
2023-02-21T02:49:02.959Z,101949.16
2023-02-21T02:51:35.983Z,101946.31
2023-02-21T02:54:09.325Z,101942.34
2023-02-21T02:56:40.572Z,101935.84
2023-02-21T02:59:14.510Z,101932.81
2023-02-21T03:01:51.633Z,101939.16
2023-02-21T03:04:47.366Z,101937.22
2023-02-21T03:07:45.242Z,101927.91
2023-02-21T03:10:26.426Z,101922.25
2023-02-21T03:13:07.486Z,101928.03
2023-02-21T03:15:44.531Z,101926.84
2023-02-21T03:18:21.118Z,101929.34
2023-02-21T03:20:58.939Z,101930.72
2023-02-21T03:23:32.259Z,101923.03
2023-02-21T03:26:12.308Z,101919.31
2023-02-21T03:28:47.871Z,101915.53
2023-02-21T03:31:22.287Z,101919.28
2023-02-21T03:33:53.963Z,101899.09
2023-02-21T03:36:24.511Z,101912.59
2023-02-21T03:38:55.810Z,101906.06
2023-02-21T03:41:28.224Z,101897.78
2023-02-21T03:43:59.605Z,101901.69
2023-02-21T03:46:31.314Z,101897.75
2023-02-21T03:49:03.211Z,101894.84
2023-02-21T03:51:34.542Z,101892.91
2023-02-21T03:54:05.797Z,101900.03
2023-02-21T03:56:43.744Z,101894.16
2023-02-21T03:59:24.329Z,101884.31
2023-02-21T04:01:56.519Z,101885.63
2023-02-21T04:04:29.587Z,101882.25
2023-02-21T04:07:09.920Z,101873.94
2023-02-21T04:09:41.145Z,101874.94
2023-02-21T04:12:14.437Z,101859.69
2023-02-21T04:14:45.651Z,101872.41
2023-02-21T04:17:17.802Z,101867.06
2023-02-21T04:19:49.693Z,101866.78
2023-02-21T04:22:21.241Z,101857.50
2023-02-21T04:24:52.823Z,101862.28
2023-02-21T04:27:25.998Z,101859.63
2023-02-21T04:29:59.819Z,101857.66
2023-02-21T04:32:33.214Z,101854.81
2023-02-21T04:35:10.173Z,101859.19
2023-02-21T04:37:41.721Z,101847.06
2023-02-21T04:40:13.816Z,101859.56
2023-02-21T04:42:44.815Z,101831.16
2023-02-21T04:45:15.952Z,101858.44
2023-02-21T04:47:47.163Z,101864.41
2023-02-21T04:50:18.707Z,101858.00
2023-02-21T04:52:50.247Z,101864.41
2023-02-21T04:55:21.511Z,101865.84
2023-02-21T04:57:52.561Z,101868.72
2023-02-21T05:00:23.760Z,101864.88
2023-02-21T05:02:55.179Z,101862.88
2023-02-21T05:05:25.856Z,101854.59
2023-02-21T05:07:57.724Z,101854.19
2023-02-21T05:10:43.530Z,101853.28
2023-02-21T05:13:17.126Z,101857.78
2023-02-21T05:15:48.668Z,101841.41
2023-02-21T05:18:24.756Z,101847.41
2023-02-21T05:20:55.969Z,101846.31
2023-02-21T05:23:37.171Z,101851.72
2023-02-21T05:26:15.666Z,101851.38
2023-02-21T05:28:47.404Z,101857.25
2023-02-21T05:31:19.031Z,101851.84
2023-02-21T05:33:50.685Z,101851.22
2023-02-21T05:36:21.359Z,101850.41
2023-02-21T05:38:54.765Z,101851.16
2023-02-21T05:41:26.406Z,101845.13
2023-02-21T05:43:57.634Z,101857.34
2023-02-21T05:46:33.851Z,101850.75
2023-02-21T05:49:06.459Z,101854.63
2023-02-21T05:51:39.448Z,101850.34
2023-02-21T05:54:12.297Z,101851.13
2023-02-21T05:56:44.777Z,101848.56
2023-02-21T05:59:16.921Z,101854.81
2023-02-21T06:01:49.072Z,101852.75
2023-02-21T06:04:20.553Z,101850.50
2023-02-21T06:06:52.295Z,101853.03
2023-02-21T06:09:23.514Z,101848.91
2023-02-21T06:11:58.834Z,101858.78
2023-02-21T06:14:30.122Z,101856.44
2023-02-21T06:17:02.227Z,101852.97
2023-02-21T06:19:34.050Z,101862.59
2023-02-21T06:22:04.756Z,101859.19
2023-02-21T06:24:36.123Z,101858.06
2023-02-21T06:27:07.508Z,101843.88
2023-02-21T06:29:38.578Z,101862.94
2023-02-21T06:32:10.208Z,101855.09
2023-02-21T06:34:41.694Z,101863.00
2023-02-21T06:37:13.047Z,101847.78
2023-02-21T06:39:44.517Z,101864.06
2023-02-21T06:42:20.157Z,101856.25
2023-02-21T06:44:52.407Z,101862.72
2023-02-21T06:47:23.827Z,101859.53
2023-02-21T06:49:55.015Z,101850.13
2023-02-21T06:52:26.123Z,101867.16
2023-02-21T06:54:57.325Z,101862.97
2023-02-21T06:57:28.558Z,101868.06
2023-02-21T06:59:59.676Z,101859.00
2023-02-21T07:02:31.560Z,101865.47
2023-02-21T07:05:02.439Z,101862.78
2023-02-21T07:07:33.712Z,101863.69
2023-02-21T07:10:04.849Z,101869.88
2023-02-21T07:12:35.981Z,101867.63
2023-02-21T07:15:07.573Z,101867.66
2023-02-21T07:17:38.624Z,101877.84
2023-02-21T07:20:10.961Z,101875.69
2023-02-21T07:22:41.455Z,101883.69
2023-02-21T07:25:18.082Z,101884.41
2023-02-21T07:27:50.971Z,101878.63
2023-02-21T07:30:22.404Z,101877.59
2023-02-21T07:33:02.005Z,101873.75
2023-02-21T07:35:33.260Z,101872.44
2023-02-21T07:38:04.139Z,101870.31
2023-02-21T07:40:35.513Z,101872.28
2023-02-21T07:43:06.652Z,101883.00
2023-02-21T07:45:37.559Z,101887.09
2023-02-21T07:48:08.668Z,101886.56
2023-02-21T07:50:39.685Z,101877.59
2023-02-21T07:53:11.391Z,101880.53
2023-02-21T07:55:41.766Z,101881.97
2023-02-21T07:58:12.705Z,101880.88
2023-02-21T08:00:43.881Z,101888.03
2023-02-21T08:03:15.921Z,101883.34
2023-02-21T08:05:48.305Z,101887.72
2023-02-21T08:08:19.496Z,101887.44
2023-02-21T08:10:51.242Z,101893.47
2023-02-21T08:13:22.672Z,101898.41
2023-02-21T08:15:53.916Z,101893.50
2023-02-21T08:18:26.202Z,101897.88
2023-02-21T08:20:58.842Z,101897.34
2023-02-21T08:23:30.047Z,101901.72
2023-02-21T08:26:01.070Z,101894.63
2023-02-21T08:28:32.424Z,101902.31
2023-02-21T08:31:03.399Z,101902.88
2023-02-21T08:33:34.445Z,101901.78
2023-02-21T08:36:05.843Z,101904.50
2023-02-21T08:38:38.902Z,101916.53
2023-02-21T08:41:11.904Z,101910.53
2023-02-21T08:43:43.088Z,101911.34
2023-02-21T08:46:14.192Z,101907.25
2023-02-21T08:48:45.563Z,101908.28
2023-02-21T08:51:17.070Z,101911.84
2023-02-21T08:53:48.618Z,101911.59
2023-02-21T08:56:27.447Z,101914.31
2023-02-21T08:58:58.912Z,101909.16
2023-02-21T09:01:35.532Z,101922.25
2023-02-21T09:04:07.564Z,101925.78
2023-02-21T09:06:37.941Z,101923.56
2023-02-21T09:09:09.319Z,101930.38
2023-02-21T09:11:40.215Z,101924.97
2023-02-21T09:14:11.091Z,101927.94
2023-02-21T09:16:42.183Z,101930.13
2023-02-21T09:19:14.875Z,101928.16
2023-02-21T09:21:49.814Z,101933.41
2023-02-21T09:24:26.576Z,101937.00
2023-02-21T09:27:05.084Z,101936.13
2023-02-21T09:29:45.943Z,101931.19
2023-02-21T09:32:17.928Z,101935.84
2023-02-21T09:34:48.835Z,101929.81
2023-02-21T09:37:19.835Z,101933.34
2023-02-21T09:39:50.930Z,101921.34
2023-02-21T09:42:25.102Z,101933.63
2023-02-21T09:44:56.415Z,101932.03
2023-02-21T09:47:32.395Z,101920.25
2023-02-21T09:50:11.726Z,101925.41
2023-02-21T09:52:44.277Z,101924.06
2023-02-21T09:55:37.603Z,101923.19
2023-02-21T09:58:15.204Z,101922.09
2023-02-21T10:00:46.974Z,101910.03
2023-02-21T10:03:33.077Z,101918.03
2023-02-21T10:06:16.459Z,101912.56
2023-02-21T10:09:18.617Z,101913.31
2023-02-21T10:11:56.566Z,101913.13
2023-02-21T10:15:05.798Z,101926.91
2023-02-21T10:18:02.219Z,101907.38
2023-02-21T10:20:41.956Z,101910.13
2023-02-21T10:23:34.780Z,101914.34
2023-02-21T10:26:14.306Z,101907.63
2023-02-21T10:28:46.194Z,101909.22
2023-02-21T10:31:20.512Z,101909.25
2023-02-21T10:33:51.843Z,101908.75
2023-02-21T10:36:24.952Z,101896.91
2023-02-21T10:39:11.068Z,101897.25
2023-02-21T10:41:43.491Z,101893.06
2023-02-21T10:44:26.526Z,101896.88
2023-02-21T10:47:26.012Z,101892.22
2023-02-21T10:50:09.163Z,101893.00
2023-02-21T10:52:52.844Z,101889.16
2023-02-21T10:55:32.887Z,101888.75
2023-02-21T10:58:21.338Z,101886.91
2023-02-21T11:00:54.306Z,101879.75
2023-02-21T11:03:30.578Z,101882.00
2023-02-21T11:06:04.042Z,101879.25
2023-02-21T11:08:46.022Z,101872.50
2023-02-21T11:11:17.568Z,101874.13
2023-02-21T11:13:48.555Z,101871.16
2023-02-21T11:16:23.541Z,101876.03
2023-02-21T11:19:07.998Z,101869.91
2023-02-21T11:21:39.030Z,101873.34
2023-02-21T11:24:13.464Z,101870.06
2023-02-21T11:26:51.116Z,101871.28
2023-02-21T11:29:28.515Z,101872.22
2023-02-21T11:31:59.595Z,101859.59
2023-02-21T11:34:32.587Z,101869.78
2023-02-21T11:37:07.318Z,101865.16
2023-02-21T11:39:38.806Z,101861.19
2023-02-21T11:42:32.634Z,101865.06
2023-02-21T11:45:14.999Z,101845.59
2023-02-21T11:47:49.240Z,101864.56
2023-02-21T11:50:34.512Z,101871.47
2023-02-21T11:53:31.378Z,101856.06
2023-02-21T11:56:23.883Z,101859.88
2023-02-21T11:59:24.302Z,101859.41
2023-02-21T12:02:38.387Z,101865.22
2023-02-21T12:05:18.931Z,101861.16
2023-02-21T12:08:21.885Z,101855.94
2023-02-21T12:11:19.074Z,101857.41
2023-02-21T12:14:05.264Z,101856.59
2023-02-21T12:16:44.522Z,101854.25
2023-02-21T12:19:33.738Z,101851.69
2023-02-21T12:22:06.851Z,101846.78
2023-02-21T12:24:57.399Z,101854.16
2023-02-21T12:27:53.034Z,101849.84
2023-02-21T12:30:48.436Z,101856.78
2023-02-21T12:33:41.396Z,101845.56
2023-02-21T12:36:17.108Z,101851.03
2023-02-21T12:38:56.299Z,101845.22
2023-02-21T12:42:02.568Z,101847.94
2023-02-21T12:44:59.102Z,101843.16
2023-02-21T12:47:41.231Z,101847.16
2023-02-21T12:50:23.285Z,101839.13
2023-02-21T12:53:05.864Z,101825.28
2023-02-21T12:55:49.506Z,101846.19
2023-02-21T12:58:47.965Z,101834.28
2023-02-21T13:01:27.715Z,101829.34
2023-02-21T13:04:34.818Z,101829.34
2023-02-21T13:07:26.874Z,101820.88
2023-02-21T13:10:07.091Z,101817.81
2023-02-21T13:12:41.764Z,101814.59
2023-02-21T13:15:23.507Z,101819.84
2023-02-21T13:17:59.692Z,101816.03
2023-02-21T13:20:38.696Z,101812.78
2023-02-21T13:23:51.853Z,101807.91
2023-02-21T13:27:20.263Z,101796.09
2023-02-21T13:29:52.354Z,101798.88
2023-02-21T13:32:23.864Z,101792.00
2023-02-21T13:35:02.116Z,101795.75
2023-02-21T13:37:35.921Z,101783.09
2023-02-21T13:40:22.746Z,101778.28
2023-02-21T13:43:08.153Z,101773.34
2023-02-21T13:45:40.735Z,101774.63
2023-02-21T13:48:13.264Z,101781.16
2023-02-21T13:50:57.776Z,101777.19
2023-02-21T13:53:36.822Z,101767.00
2023-02-21T13:56:11.017Z,101770.94
2023-02-21T13:58:52.035Z,101761.28
2023-02-21T14:01:31.953Z,101769.31
2023-02-21T14:04:02.905Z,101765.94
2023-02-21T14:06:38.774Z,101769.97
2023-02-21T14:09:17.827Z,101770.72
2023-02-21T14:11:54.068Z,101768.16
2023-02-21T14:14:31.933Z,101770.34
2023-02-21T14:17:05.977Z,101768.13
2023-02-21T14:19:46.566Z,101764.66
2023-02-21T14:22:27.435Z,101757.78
2023-02-21T14:25:20.128Z,101759.94
2023-02-21T14:27:54.774Z,101759.22
2023-02-21T14:30:28.054Z,101756.25
2023-02-21T14:33:09.277Z,101749.41
2023-02-21T14:35:49.874Z,101749.78
2023-02-21T14:38:29.319Z,101747.31
2023-02-21T14:41:28.845Z,101746.16
2023-02-21T14:44:32.090Z,101744.84
2023-02-21T14:47:27.059Z,101739.28
2023-02-21T14:50:13.605Z,101737.38
2023-02-21T14:53:01.778Z,101736.28
2023-02-21T14:56:04.949Z,101733.34
2023-02-21T14:59:05.795Z,101720.81
2023-02-21T15:01:44.371Z,101722.06
2023-02-21T15:04:30.410Z,101722.84
2023-02-21T15:07:20.357Z,101715.69
2023-02-21T15:10:24.852Z,101721.59
2023-02-21T15:12:59.327Z,101710.72
2023-02-21T15:15:37.899Z,101728.47
2023-02-21T15:18:12.340Z,101726.16
2023-02-21T15:20:44.704Z,101732.13
2023-02-21T15:23:18.233Z,101731.66
2023-02-21T15:25:57.916Z,101732.69
2023-02-21T15:28:34.919Z,101736.31
2023-02-21T15:31:11.552Z,101730.75
2023-02-21T15:33:44.591Z,101734.16
2023-02-21T15:36:22.947Z,101736.91
2023-02-21T15:39:25.172Z,101729.03
2023-02-21T15:42:01.134Z,101737.88
2023-02-21T15:44:57.689Z,101736.50
2023-02-21T15:47:31.876Z,101730.66
2023-02-21T15:50:31.729Z,101738.84
2023-02-21T15:53:15.933Z,101737.84
2023-02-21T15:55:48.114Z,101728.81
2023-02-21T15:58:20.826Z,101730.72
2023-02-21T16:01:12.610Z,101717.53
2023-02-21T16:03:44.022Z,101720.25
2023-02-21T16:06:24.285Z,101722.56
2023-02-21T16:09:00.358Z,101708.91
2023-02-21T16:11:51.043Z,101714.34
2023-02-21T16:14:33.318Z,101706.53
2023-02-21T16:17:23.216Z,101707.44
2023-02-21T16:19:57.915Z,101700.84
2023-02-21T16:22:59.274Z,101703.41
2023-02-21T16:25:27.935Z,101702.19
2023-02-21T16:28:01.858Z,101704.38
2023-02-21T16:30:36.789Z,101705.50
2023-02-21T16:33:08.419Z,101697.13
2023-02-21T16:35:39.833Z,101699.81
2023-02-21T16:38:18.153Z,101704.63
2023-02-21T16:40:49.865Z,101703.66
2023-02-21T16:43:26.570Z,101707.25
2023-02-21T16:46:01.443Z,101706.09
2023-02-21T16:48:36.054Z,101707.75
2023-02-21T16:51:11.993Z,101701.06
2023-02-21T16:53:43.570Z,101698.88
2023-02-21T16:56:14.744Z,101705.50
2023-02-21T16:58:51.398Z,101700.50
2023-02-21T17:01:37.871Z,101693.53
2023-02-21T17:04:28.778Z,101701.91
2023-02-21T17:07:05.951Z,101702.66
2023-02-21T17:09:40.694Z,101699.75
2023-02-21T17:12:14.815Z,101706.44
2023-02-21T17:14:46.345Z,101703.13
2023-02-21T17:17:19.229Z,101699.84
2023-02-21T17:19:50.521Z,101699.28
2023-02-21T17:22:21.723Z,101699.09
2023-02-21T17:24:52.800Z,101701.69
2023-02-21T17:27:24.046Z,101698.13
2023-02-21T17:29:55.487Z,101701.25
2023-02-21T17:32:28.536Z,101694.91
2023-02-21T17:35:00.066Z,101698.16
2023-02-21T17:37:33.093Z,101688.81
2023-02-21T17:40:04.818Z,101699.75
2023-02-21T17:42:36.323Z,101695.97
2023-02-21T17:45:09.941Z,101691.19
2023-02-21T17:47:41.337Z,101686.66
2023-02-21T17:50:12.532Z,101693.78
2023-02-21T17:52:43.927Z,101693.16
2023-02-21T17:55:22.935Z,101697.19
2023-02-21T17:57:54.623Z,101691.00
2023-02-21T18:00:26.566Z,101694.66
2023-02-21T18:02:58.637Z,101693.06
2023-02-21T18:05:31.612Z,101686.09
2023-02-21T18:08:02.645Z,101689.78
2023-02-21T18:10:35.045Z,101689.53
2023-02-21T18:13:06.307Z,101685.91
2023-02-21T18:15:37.828Z,101682.75
2023-02-21T18:18:09.059Z,101679.78
2023-02-21T18:20:39.811Z,101675.81
2023-02-21T18:23:10.724Z,101683.06
2023-02-21T18:25:41.845Z,101679.78
2023-02-21T18:28:13.710Z,101675.59
2023-02-21T18:30:45.124Z,101675.34
2023-02-21T18:33:17.401Z,101676.44
2023-02-21T18:35:48.291Z,101683.97
2023-02-21T18:38:19.690Z,101680.31
2023-02-21T18:40:50.831Z,101675.38
2023-02-21T18:43:27.172Z,101670.31
2023-02-21T18:45:59.404Z,101675.31
2023-02-21T18:48:30.696Z,101670.22
2023-02-21T18:51:01.766Z,101680.75
2023-02-21T18:53:33.006Z,101676.19
2023-02-21T18:56:06.405Z,101685.69
2023-02-21T18:58:38.250Z,101682.66
2023-02-21T19:01:11.715Z,101682.38
2023-02-21T19:03:43.369Z,101685.31
2023-02-21T19:06:15.250Z,101677.59
2023-02-21T19:08:51.817Z,101670.75
2023-02-21T19:11:23.232Z,101672.44
2023-02-21T19:13:54.408Z,101683.91
2023-02-21T19:16:26.973Z,101671.59
2023-02-21T19:18:59.598Z,101675.47
2023-02-21T19:21:31.281Z,101676.41
2023-02-21T19:24:03.240Z,101675.78
2023-02-21T19:26:33.682Z,101667.91
2023-02-21T19:29:04.866Z,101664.00
2023-02-21T19:31:36.586Z,101667.50
2023-02-21T19:34:08.465Z,101669.31
2023-02-21T19:36:40.442Z,101667.19
2023-02-21T19:39:13.237Z,101669.25
2023-02-21T19:41:44.386Z,101659.94
2023-02-21T19:44:16.242Z,101658.03
2023-02-21T19:46:47.283Z,101657.09
2023-02-21T19:49:23.264Z,101664.88
2023-02-21T19:51:56.062Z,101660.38
2023-02-21T19:54:31.409Z,101654.09
2023-02-21T19:57:02.785Z,101645.41
2023-02-21T19:59:35.304Z,101645.16
2023-02-21T20:02:06.428Z,101643.25
2023-02-21T20:04:37.657Z,101634.81
2023-02-21T20:07:08.936Z,101624.94
2023-02-21T20:09:40.358Z,101635.34
2023-02-21T20:12:13.097Z,101628.44
2023-02-21T20:14:47.454Z,101615.75
2023-02-21T20:17:19.525Z,101614.53
2023-02-21T20:19:50.634Z,101621.34
2023-02-21T20:22:21.702Z,101622.16
2023-02-21T20:24:52.826Z,101616.81
2023-02-21T20:27:24.052Z,101615.91
2023-02-21T20:29:54.994Z,101620.78
2023-02-21T20:32:27.086Z,101614.59
2023-02-21T20:34:58.752Z,101608.72
2023-02-21T20:37:32.657Z,101611.00
2023-02-21T20:40:07.014Z,101600.13
2023-02-21T20:42:38.203Z,101602.63
2023-02-21T20:45:11.968Z,101605.47
2023-02-21T20:47:43.138Z,101597.09
2023-02-21T20:50:14.408Z,101601.28
2023-02-21T20:52:45.501Z,101598.19
2023-02-21T20:55:26.650Z,101595.22
2023-02-21T20:57:57.742Z,101598.50
2023-02-21T21:00:31.630Z,101586.78
2023-02-21T21:03:02.787Z,101589.00
2023-02-21T21:05:34.156Z,101593.06
2023-02-21T21:08:05.276Z,101589.19
2023-02-21T21:10:36.444Z,101581.28
2023-02-21T21:13:07.997Z,101586.94
2023-02-21T21:15:39.118Z,101580.50
2023-02-21T21:18:11.669Z,101577.13
2023-02-21T21:20:42.808Z,101575.44
2023-02-21T21:23:14.028Z,101582.47
2023-02-21T21:25:45.119Z,101573.31
2023-02-21T21:28:16.615Z,101568.75
2023-02-21T21:30:48.427Z,101564.94
2023-02-21T21:33:21.013Z,101565.16
2023-02-21T21:35:54.121Z,101557.66
2023-02-21T21:38:27.873Z,101555.81
2023-02-21T21:40:59.298Z,101554.63
2023-02-21T21:43:30.386Z,101547.88
2023-02-21T21:46:01.510Z,101555.84
2023-02-21T21:48:32.524Z,101551.56
2023-02-21T21:51:05.105Z,101546.63
2023-02-21T21:53:36.034Z,101552.91
2023-02-21T21:56:07.214Z,101545.78
2023-02-21T21:58:38.224Z,101540.78
2023-02-21T22:01:09.072Z,101542.00
2023-02-21T22:03:40.243Z,101527.97
2023-02-21T22:06:12.453Z,101528.69
2023-02-21T22:08:43.586Z,101530.75
2023-02-21T22:11:14.490Z,101533.72
2023-02-21T22:13:45.703Z,101523.81
2023-02-21T22:16:16.933Z,101520.19
2023-02-21T22:18:48.328Z,101524.78
2023-02-21T22:21:19.468Z,101522.91
2023-02-21T22:23:52.990Z,101519.63
2023-02-21T22:26:24.614Z,101505.69
2023-02-21T22:28:56.080Z,101509.03
2023-02-21T22:31:28.682Z,101507.31
2023-02-21T22:34:03.423Z,101502.31
2023-02-21T22:36:38.225Z,101501.72
2023-02-21T22:39:12.511Z,101500.09
2023-02-21T22:41:45.486Z,101493.06
2023-02-21T22:44:18.065Z,101504.16
2023-02-21T22:47:01.286Z,101497.25
2023-02-21T22:49:32.920Z,101494.69
2023-02-21T22:52:05.509Z,101492.03
2023-02-21T22:54:37.659Z,101495.22
2023-02-21T22:57:09.066Z,101492.53
2023-02-21T22:59:40.150Z,101488.38
2023-02-21T23:02:11.367Z,101478.91
2023-02-21T23:04:42.565Z,101480.75
2023-02-21T23:09:44.286Z,101473.25
2023-02-21T23:12:16.459Z,101474.22
2023-02-21T23:14:49.596Z,101468.09
2023-02-21T23:17:20.648Z,101472.78
2023-02-21T23:19:51.744Z,101470.84
2023-02-21T23:22:22.711Z,101466.50
2023-02-21T23:24:53.648Z,101464.34
2023-02-21T23:27:24.798Z,101471.69
2023-02-21T23:29:55.986Z,101463.94
2023-02-21T23:32:26.900Z,101467.91
2023-02-21T23:34:57.952Z,101468.44
2023-02-21T23:37:28.802Z,101465.56
2023-02-21T23:39:59.688Z,101465.41
2023-02-21T23:42:33.008Z,101461.56
2023-02-21T23:45:03.913Z,101465.88
2023-02-21T23:47:35.008Z,101464.63
2023-02-21T23:50:09.039Z,101468.31
2023-02-21T23:52:39.866Z,101466.53
2023-02-21T23:55:10.920Z,101474.47
2023-02-21T23:57:44.474Z,101482.34
